Terminal Aerodrome Forecast
Issued by NWS

Home | Current Version | Previous Version | Text Only | Print | Product List | Glossary On
Versions: 1 2 3 4 5 6 7 8 9 10 11 12 13 14 15 16 17 18
000
FTUS43 KGRB 301100
TAFCWA
TAF
KCWA 301129Z 3012/3112 27005KT P6SM SCT025 OVC100
     FM301900 29008KT P6SM SCT025 BKN050
      TEMPO 3019/3023 -SHRA BKN025
     FM310200 31013G21KT P6SM BKN025 OVC050 PROB30 3103/3108 6SM
      -SHSN
     FM310800 33016G27KT P6SM BKN025 OVC050=

USA.gov is the U.S. government's official web portal to all federal, state and local government web resources and services.